createdAt,value
2019-01-30T00:01:28.530Z,100017.98
2019-01-30T00:04:01.218Z,100023.72
2019-01-30T00:06:33.448Z,100036.05
2019-01-30T00:09:07.297Z,100033.16
2019-01-30T00:11:39.492Z,100030.64
2019-01-30T00:14:11.606Z,100035.00
2019-01-30T00:16:43.787Z,100033.48
2019-01-30T00:19:15.932Z,100039.91
2019-01-30T00:21:48.231Z,100035.52
2019-01-30T00:24:20.431Z,100028.77
2019-01-30T00:26:52.539Z,100032.16
2019-01-30T00:29:24.644Z,100039.73
2019-01-30T00:31:56.790Z,100041.59
2019-01-30T00:34:29.369Z,100048.00
2019-01-30T00:37:01.618Z,100048.00
2019-01-30T00:39:33.707Z,100058.62
2019-01-30T00:42:05.971Z,100063.67
2019-01-30T00:44:38.242Z,100069.23
2019-01-30T00:47:15.781Z,100071.28
2019-01-30T00:49:44.190Z,100068.41
2019-01-30T00:52:16.364Z,100077.16
2019-01-30T00:54:49.739Z,100079.72
2019-01-30T00:57:21.926Z,100084.23
2019-01-30T00:59:54.141Z,100083.58
2019-01-30T01:02:26.365Z,100101.61
2019-01-30T01:04:58.675Z,100096.38
2019-01-30T01:07:31.779Z,100092.50
2019-01-30T01:10:04.390Z,100082.04
2019-01-30T01:12:36.714Z,100086.09
2019-01-30T01:15:09.237Z,100094.87
2019-01-30T01:17:41.450Z,100102.28
2019-01-30T01:20:14.303Z,100099.56
2019-01-30T01:22:46.438Z,100106.83
2019-01-30T01:25:18.849Z,100098.22
2019-01-30T01:27:50.938Z,100095.84
2019-01-30T01:30:25.822Z,100092.64
2019-01-30T01:32:58.060Z,100093.33
2019-01-30T01:35:31.682Z,100091.97
2019-01-30T01:38:03.772Z,100090.97
2019-01-30T01:40:36.440Z,100088.92
2019-01-30T01:43:08.601Z,100103.11
2019-01-30T01:45:41.147Z,100097.36
2019-01-30T01:48:13.360Z,100092.47
2019-01-30T01:50:45.537Z,100093.81
2019-01-30T01:53:17.664Z,100100.23
2019-01-30T01:55:49.749Z,100105.27
2019-01-30T01:58:22.092Z,100099.21
2019-01-30T02:00:54.203Z,100103.24
2019-01-30T02:03:26.235Z,100099.71
2019-01-30T02:05:58.486Z,100101.39
2019-01-30T02:08:30.723Z,100105.27
2019-01-30T02:11:02.944Z,100099.05
2019-01-30T02:13:35.097Z,100103.76
2019-01-30T02:16:07.266Z,100105.63
2019-01-30T02:18:39.439Z,100109.67
2019-01-30T02:21:11.617Z,100107.81
2019-01-30T02:23:43.791Z,100111.02
2019-01-30T02:26:15.948Z,100111.67
2019-01-30T02:28:48.099Z,100113.02
2019-01-30T02:31:20.383Z,100114.05
2019-01-30T02:33:52.449Z,100114.89
2019-01-30T02:36:24.635Z,100122.30
2019-01-30T02:38:56.763Z,100118.77
2019-01-30T02:41:28.954Z,100126.86
2019-01-30T02:44:01.092Z,100136.30
2019-01-30T02:46:33.304Z,100130.56
2019-01-30T02:49:05.478Z,100136.47
2019-01-30T02:51:37.565Z,100132.42
2019-01-30T02:54:09.680Z,100139.69
2019-01-30T02:56:42.853Z,100147.61
2019-01-30T02:59:15.098Z,100149.45
2019-01-30T03:01:56.924Z,100157.54
2019-01-30T03:04:29.184Z,100170.84
2019-01-30T03:07:01.256Z,100179.31
2019-01-30T03:09:33.532Z,100193.02
2019-01-30T03:12:05.784Z,100193.52
2019-01-30T03:14:37.733Z,100204.80
2019-01-30T03:17:09.957Z,100208.33
2019-01-30T03:19:42.085Z,100217.23
2019-01-30T03:22:14.238Z,100224.81
2019-01-30T03:24:46.563Z,100222.11
2019-01-30T03:27:18.923Z,100222.95
2019-01-30T03:29:51.094Z,100221.59
2019-01-30T03:32:23.484Z,100228.16
2019-01-30T03:34:55.613Z,100237.11
2019-01-30T03:37:27.792Z,100242.51
2019-01-30T03:40:00.240Z,100232.02
2019-01-30T03:42:32.554Z,100231.17
2019-01-30T03:45:04.949Z,100228.31
2019-01-30T03:47:37.211Z,100235.73
2019-01-30T03:50:10.019Z,100250.22
2019-01-30T03:52:44.566Z,100261.36
2019-01-30T03:55:17.022Z,100265.06
2019-01-30T03:57:49.315Z,100262.84
2019-01-30T04:00:22.454Z,100275.02
2019-01-30T04:02:54.592Z,100271.45
2019-01-30T04:05:27.775Z,100263.00
2019-01-30T04:08:00.093Z,100269.59
2019-01-30T04:10:32.302Z,100267.73
2019-01-30T04:13:04.587Z,100268.23
2019-01-30T04:15:37.147Z,100272.61
2019-01-30T04:18:09.307Z,100272.28
2019-01-30T04:20:41.366Z,100274.79
2019-01-30T04:23:13.897Z,100280.16
2019-01-30T04:25:46.247Z,100285.38
2019-01-30T04:28:19.139Z,100282.79
2019-01-30T04:30:51.398Z,100289.56
2019-01-30T04:33:23.586Z,100284.07
2019-01-30T04:35:56.107Z,100292.93
2019-01-30T04:38:28.247Z,100290.23
2019-01-30T04:41:01.513Z,100293.64
2019-01-30T04:43:34.832Z,100296.17
2019-01-30T04:46:07.077Z,100296.11
2019-01-30T04:48:39.363Z,100292.53
2019-01-30T04:51:11.607Z,100288.56
2019-01-30T04:53:44.940Z,100291.94
2019-01-30T04:56:17.355Z,100293.80
2019-01-30T04:58:49.720Z,100302.38
2019-01-30T05:01:22.218Z,100306.09
2019-01-30T05:03:54.481Z,100310.30
2019-01-30T05:06:26.869Z,100312.48
2019-01-30T05:08:59.255Z,100317.04
2019-01-30T05:11:31.790Z,100321.09
2019-01-30T05:14:03.885Z,100322.28
2019-01-30T05:16:36.225Z,100313.16
2019-01-30T05:19:08.800Z,100312.45
2019-01-30T05:21:40.942Z,100316.60
2019-01-30T05:24:13.299Z,100316.25
2019-01-30T05:26:45.508Z,100315.64
2019-01-30T05:29:18.271Z,100308.55
2019-01-30T05:32:00.933Z,100297.97
2019-01-30T05:34:25.372Z,100299.13
2019-01-30T05:36:57.732Z,100289.84
2019-01-30T05:39:30.006Z,100281.39
2019-01-30T05:42:02.368Z,100287.34
2019-01-30T05:44:34.566Z,100280.92
2019-01-30T05:47:06.965Z,100287.14
2019-01-30T05:49:39.180Z,100287.94
2019-01-30T05:52:11.435Z,100283.70
2019-01-30T05:54:43.715Z,100278.66
2019-01-30T05:57:15.994Z,100269.03
2019-01-30T05:59:48.324Z,100265.82
2019-01-30T06:02:20.606Z,100265.31
2019-01-30T06:04:52.793Z,100262.77
2019-01-30T06:07:25.157Z,100265.02
2019-01-30T06:09:57.248Z,100256.45
2019-01-30T06:12:29.492Z,100246.30
2019-01-30T06:15:01.548Z,100251.70
2019-01-30T06:17:33.824Z,100248.65
2019-01-30T06:20:06.228Z,100255.39
2019-01-30T06:22:38.602Z,100251.05
2019-01-30T06:25:10.958Z,100254.63
2019-01-30T06:27:43.279Z,100249.58
2019-01-30T06:30:16.001Z,100236.77
2019-01-30T06:32:48.124Z,100237.45
2019-01-30T06:35:20.398Z,100232.89
2019-01-30T06:37:52.515Z,100222.81
2019-01-30T06:40:25.806Z,100225.15
2019-01-30T06:42:57.889Z,100223.97
2019-01-30T06:45:30.179Z,100221.11
2019-01-30T06:48:02.651Z,100215.74
2019-01-30T06:50:37.013Z,100212.34
2019-01-30T06:53:09.216Z,100196.70
2019-01-30T06:55:41.463Z,100190.31
2019-01-30T06:58:13.682Z,100191.62
2019-01-30T07:00:45.969Z,100184.21
2019-01-30T07:03:18.177Z,100171.88
2019-01-30T07:05:50.380Z,100168.86
2019-01-30T07:08:22.665Z,100166.17
2019-01-30T07:10:54.734Z,100156.89
2019-01-30T07:13:27.065Z,100153.17
2019-01-30T07:15:59.230Z,100155.70
2019-01-30T07:18:31.565Z,100145.59
2019-01-30T07:21:03.622Z,100138.85
2019-01-30T07:23:36.103Z,100133.34
2019-01-30T07:26:08.295Z,100130.83
2019-01-30T07:28:40.419Z,100124.73
2019-01-30T07:31:12.700Z,100118.16
2019-01-30T07:33:44.863Z,100119.13
2019-01-30T07:36:17.028Z,100114.41
2019-01-30T07:38:49.245Z,100103.11
2019-01-30T07:41:21.532Z,100102.80
2019-01-30T07:43:53.786Z,100092.49
2019-01-30T07:46:25.973Z,100087.12
2019-01-30T07:48:58.084Z,100085.59
2019-01-30T07:51:30.351Z,100076.83
2019-01-30T07:54:02.400Z,100072.78
2019-01-30T07:56:34.659Z,100068.73
2019-01-30T07:59:06.748Z,100065.04
2019-01-30T08:01:38.900Z,100059.12
2019-01-30T08:04:11.075Z,100055.92
2019-01-30T08:06:43.229Z,100054.25
2019-01-30T08:09:15.422Z,100046.64
2019-01-30T08:11:47.621Z,100039.73
2019-01-30T08:14:19.782Z,100034.88
2019-01-30T08:16:52.004Z,100037.92
2019-01-30T08:19:24.289Z,100029.67
2019-01-30T08:21:56.400Z,100026.63
2019-01-30T08:24:28.844Z,100020.89
2019-01-30T08:27:01.335Z,100023.59
2019-01-30T08:29:33.566Z,100018.88
2019-01-30T08:32:06.346Z,100008.92
2019-01-30T08:34:38.513Z,100008.75
2019-01-30T08:37:10.649Z,99999.83
2019-01-30T08:39:42.828Z,99996.78
2019-01-30T08:42:15.007Z,99990.71
2019-01-30T08:44:47.428Z,99988.02
2019-01-30T08:47:19.560Z,99977.74
2019-01-30T08:49:51.816Z,99970.16
2019-01-30T08:52:23.867Z,99967.48
2019-01-30T08:54:56.227Z,99963.25
2019-01-30T08:57:28.443Z,99965.27
2019-01-30T09:00:00.564Z,99963.25
2019-01-30T09:02:33.712Z,99949.77
2019-01-30T09:05:05.946Z,99962.25
2019-01-30T09:07:44.362Z,99959.88
2019-01-30T09:10:13.637Z,99961.41
2019-01-30T09:12:45.973Z,99953.83
2019-01-30T09:15:18.937Z,99953.48
2019-01-30T09:17:51.064Z,99955.49
2019-01-30T09:20:23.749Z,99947.26
2019-01-30T09:22:55.868Z,99937.32
2019-01-30T09:25:28.619Z,99940.52
2019-01-30T09:28:01.104Z,99935.95
2019-01-30T09:30:40.178Z,99925.49
2019-01-30T09:33:12.825Z,99923.63
2019-01-30T09:35:44.993Z,99929.54
2019-01-30T09:38:17.224Z,99924.49
2019-01-30T09:40:49.615Z,99918.23
2019-01-30T09:43:21.772Z,99919.09
2019-01-30T09:45:54.940Z,99917.75
2019-01-30T09:48:27.352Z,99918.06
2019-01-30T09:50:59.571Z,99926.85
2019-01-30T09:53:31.727Z,99927.50
2019-01-30T09:56:03.974Z,99924.80
2019-01-30T09:58:36.123Z,99929.20
2019-01-30T10:01:08.298Z,99924.80
2019-01-30T10:03:40.507Z,99929.20
2019-01-30T10:06:12.816Z,99934.08
2019-01-30T10:08:45.071Z,99923.13
2019-01-30T10:11:17.344Z,99921.77
2019-01-30T10:13:49.734Z,99929.38
2019-01-30T10:16:22.018Z,99924.81
2019-01-30T10:18:54.289Z,99919.08
2019-01-30T10:21:26.399Z,99914.55
2019-01-30T10:23:58.583Z,99908.63
2019-01-30T10:26:30.874Z,99906.28
2019-01-30T10:29:03.076Z,99900.38
2019-01-30T10:31:35.548Z,99904.10
2019-01-30T10:34:07.981Z,99903.07
2019-01-30T10:36:40.486Z,99903.93
2019-01-30T10:39:13.113Z,99899.37
2019-01-30T10:41:45.616Z,99898.02
2019-01-30T10:44:18.033Z,99888.41
2019-01-30T10:46:50.309Z,99894.80
2019-01-30T10:49:23.940Z,99886.23
2019-01-30T10:51:57.171Z,99888.41
2019-01-30T10:54:29.552Z,99885.54
2019-01-30T10:57:01.666Z,99896.84
2019-01-30T10:59:33.965Z,99893.15
2019-01-30T11:02:06.251Z,99885.72
2019-01-30T11:04:38.510Z,99886.72
2019-01-30T11:07:10.774Z,99884.88
2019-01-30T11:09:42.979Z,99889.59
2019-01-30T11:12:15.305Z,99888.77
2019-01-30T11:14:48.759Z,99889.08
2019-01-30T11:17:20.825Z,99898.34
2019-01-30T11:19:53.268Z,99900.21
2019-01-30T11:22:25.396Z,99907.30
2019-01-30T11:24:57.796Z,99905.95
2019-01-30T11:27:29.936Z,99894.99
2019-01-30T11:30:02.319Z,99900.39
2019-01-30T11:32:34.631Z,99899.88
2019-01-30T11:35:07.111Z,99899.70
2019-01-30T11:37:39.287Z,99897.52
2019-01-30T11:40:12.384Z,99901.91
2019-01-30T11:42:44.622Z,99898.52
2019-01-30T11:45:20.927Z,99897.34
2019-01-30T11:47:53.308Z,99892.30
2019-01-30T11:50:25.911Z,99882.34
2019-01-30T11:52:58.461Z,99884.55
2019-01-30T11:55:30.835Z,99870.55
2019-01-30T11:58:03.282Z,99870.55
2019-01-30T12:00:39.957Z,99869.85
2019-01-30T12:03:12.413Z,99873.90
2019-01-30T12:05:45.256Z,99880.99
2019-01-30T12:08:17.854Z,99891.78
2019-01-30T12:10:53.168Z,99890.78
2019-01-30T12:13:25.413Z,99890.95
2019-01-30T12:15:57.884Z,99897.02
2019-01-30T12:18:30.478Z,99899.19
2019-01-30T12:21:02.668Z,99903.59
2019-01-30T12:23:35.008Z,99905.45
2019-01-30T12:26:07.066Z,99909.81
2019-01-30T12:28:39.590Z,99901.41
2019-01-30T12:31:12.329Z,99911.03
2019-01-30T12:33:45.593Z,99922.13
2019-01-30T12:36:17.888Z,99931.92
2019-01-30T12:38:49.952Z,99931.58
2019-01-30T12:41:22.424Z,99941.03
2019-01-30T12:43:54.548Z,99940.72
2019-01-30T12:46:27.028Z,99933.11
2019-01-30T12:48:58.984Z,99932.10
2019-01-30T12:51:31.331Z,99932.94
2019-01-30T12:54:03.373Z,99942.56
2019-01-30T12:56:35.700Z,99946.95
2019-01-30T12:59:07.909Z,99942.56
2019-01-30T13:01:40.537Z,99943.73
2019-01-30T13:04:12.741Z,99937.98
2019-01-30T13:06:46.150Z,99943.39
2019-01-30T13:09:18.267Z,99951.31
2019-01-30T13:11:50.509Z,99955.37
2019-01-30T13:14:22.656Z,99950.83
2019-01-30T13:16:54.710Z,99948.13
2019-01-30T13:19:28.141Z,99944.08
2019-01-30T13:22:00.273Z,99949.48
2019-01-30T13:24:33.747Z,99953.84
2019-01-30T13:27:05.795Z,99954.70
2019-01-30T13:29:38.352Z,99947.78
2019-01-30T13:32:11.237Z,99950.48
2019-01-30T13:34:49.043Z,99961.63
2019-01-30T13:37:17.588Z,99959.42
2019-01-30T13:39:49.891Z,99953.67
2019-01-30T13:42:22.127Z,99950.84
2019-01-30T13:44:54.540Z,99950.98
2019-01-30T13:47:26.746Z,99956.55
2019-01-30T13:49:59.040Z,99959.42
2019-01-30T13:52:31.159Z,99959.94
2019-01-30T13:55:03.525Z,99959.10
2019-01-30T13:57:35.991Z,99966.69
2019-01-30T14:00:08.781Z,99973.78
2019-01-30T14:02:41.045Z,99977.48
2019-01-30T14:05:13.301Z,99976.13
2019-01-30T14:07:45.802Z,99983.23
2019-01-30T14:10:18.014Z,99991.81
2019-01-30T14:12:50.468Z,99978.16
2019-01-30T14:15:24.218Z,99996.05
2019-01-30T14:17:56.474Z,99998.57
2019-01-30T14:20:28.684Z,100005.66
2019-01-30T14:23:01.136Z,100006.67
2019-01-30T14:25:35.443Z,100014.77
2019-01-30T14:28:07.545Z,100017.98
2019-01-30T14:30:40.429Z,100013.42
2019-01-30T14:33:12.878Z,100019.16
2019-01-30T14:35:45.719Z,100022.20
2019-01-30T14:38:17.862Z,100036.55
2019-01-30T14:40:50.473Z,100035.54
2019-01-30T14:43:22.530Z,100037.55
2019-01-30T14:45:55.236Z,100035.85
2019-01-30T14:48:27.276Z,100042.78
2019-01-30T14:50:59.626Z,100044.65
2019-01-30T14:53:31.887Z,100054.45
2019-01-30T14:56:03.966Z,100060.68
2019-01-30T14:58:36.335Z,100061.20
2019-01-30T15:01:08.524Z,100059.16
2019-01-30T15:03:40.676Z,100064.39
2019-01-30T15:06:12.895Z,100067.26
2019-01-30T15:08:44.996Z,100067.61
2019-01-30T15:11:17.119Z,100066.25
2019-01-30T15:13:49.235Z,100061.52
2019-01-30T15:16:21.363Z,100052.92
2019-01-30T15:18:53.602Z,100061.52
2019-01-30T15:21:26.704Z,100059.16
2019-01-30T15:23:58.896Z,100068.61
2019-01-30T15:26:32.119Z,100074.84
2019-01-30T15:29:04.291Z,100080.41
2019-01-30T15:31:36.460Z,100088.52
2019-01-30T15:34:08.775Z,100086.67
2019-01-30T15:36:41.042Z,100080.41
2019-01-30T15:39:13.374Z,100088.86
2019-01-30T15:41:45.379Z,100088.03
2019-01-30T15:44:17.611Z,100088.34
2019-01-30T15:46:49.736Z,100086.51
2019-01-30T15:49:21.943Z,100085.64
2019-01-30T15:51:54.391Z,100077.06
2019-01-30T15:54:30.808Z,100078.06
2019-01-30T15:57:03.088Z,100080.11
2019-01-30T15:59:35.457Z,100089.55
2019-01-30T16:02:07.639Z,100100.84
2019-01-30T16:04:40.970Z,100102.19
2019-01-30T16:07:13.453Z,100097.66
2019-01-30T16:09:45.781Z,100089.69
2019-01-30T16:12:18.094Z,100082.80
2019-01-30T16:14:50.475Z,100081.94
2019-01-30T16:17:23.682Z,100079.76
2019-01-30T16:19:55.882Z,100076.19
2019-01-30T16:22:28.402Z,100081.45
2019-01-30T16:25:08.875Z,100067.61
2019-01-30T16:27:35.571Z,100067.61
2019-01-30T16:30:08.568Z,100080.61
2019-01-30T16:32:41.941Z,100081.64
2019-01-30T16:35:15.379Z,100058.89
2019-01-30T16:37:47.487Z,100054.61
2019-01-30T16:40:19.711Z,100058.41
2019-01-30T16:42:54.324Z,100058.70
2019-01-30T16:45:26.519Z,100048.41
2019-01-30T16:47:58.934Z,100045.66
2019-01-30T16:50:31.098Z,100045.64
2019-01-30T16:53:03.646Z,100034.41
2019-01-30T16:55:37.828Z,100023.34
2019-01-30T16:58:11.036Z,100021.83
2019-01-30T17:00:43.305Z,100028.78
2019-01-30T17:03:15.613Z,100024.79
2019-01-30T17:05:47.784Z,100008.48
2019-01-30T17:08:20.157Z,100007.06
2019-01-30T17:10:52.487Z,100011.84
2019-01-30T17:13:24.855Z,100010.27
2019-01-30T17:15:57.022Z,100008.73
2019-01-30T17:18:29.336Z,99997.98
2019-01-30T17:21:01.459Z,99984.05
2019-01-30T17:23:33.726Z,99978.14
2019-01-30T17:26:05.945Z,99988.08
2019-01-30T17:28:38.246Z,99996.96
2019-01-30T17:31:30.551Z,100010.88
2019-01-30T17:34:02.787Z,100012.29
2019-01-30T17:36:34.992Z,100020.48
2019-01-30T17:39:09.067Z,100028.61
2019-01-30T17:41:41.315Z,100041.48
2019-01-30T17:44:13.473Z,100042.38
2019-01-30T17:46:45.722Z,100042.69
2019-01-30T17:49:19.172Z,100040.66
2019-01-30T17:51:53.279Z,100037.42
2019-01-30T17:54:25.511Z,100025.56
2019-01-30T17:56:57.883Z,100033.17
2019-01-30T17:59:31.000Z,100036.86
2019-01-30T18:02:03.307Z,100046.16
2019-01-30T18:04:35.523Z,100052.81
2019-01-30T18:07:07.785Z,100054.11
2019-01-30T18:09:40.016Z,100051.46
2019-01-30T18:12:12.327Z,100064.80
2019-01-30T18:14:44.561Z,100063.44
2019-01-30T18:17:16.862Z,100051.06
2019-01-30T18:19:49.485Z,100058.81
2019-01-30T18:22:21.756Z,100060.88
2019-01-30T18:24:53.902Z,100067.13
2019-01-30T18:27:26.043Z,100065.22
2019-01-30T18:29:58.452Z,100057.24
2019-01-30T18:32:30.996Z,100051.14
2019-01-30T18:35:03.155Z,100039.81
2019-01-30T18:37:36.461Z,100033.03
2019-01-30T18:40:09.568Z,100021.97
2019-01-30T18:42:41.790Z,100014.16
2019-01-30T18:45:15.001Z,100010.56
2019-01-30T18:47:47.346Z,100007.20
2019-01-30T18:50:20.560Z,100006.97
2019-01-30T18:52:52.954Z,100014.88
2019-01-30T18:55:25.314Z,100017.73
2019-01-30T18:57:57.642Z,100010.42
2019-01-30T19:00:33.350Z,100005.00
2019-01-30T19:03:06.173Z,100005.86
2019-01-30T19:05:38.278Z,100016.23
2019-01-30T19:08:10.385Z,100015.89
2019-01-30T19:10:42.458Z,100017.86
2019-01-30T19:13:14.774Z,100014.88
2019-01-30T19:15:47.509Z,100010.33
2019-01-30T19:18:19.806Z,100016.77
2019-01-30T19:20:52.122Z,100011.88
2019-01-30T19:23:24.504Z,100002.91
2019-01-30T19:25:56.726Z,99999.86
2019-01-30T19:28:28.869Z,99990.71
2019-01-30T19:31:01.028Z,99997.80
2019-01-30T19:33:33.281Z,100002.23
2019-01-30T19:36:05.387Z,100010.08
2019-01-30T19:38:37.645Z,100012.10
2019-01-30T19:41:09.945Z,100012.78
2019-01-30T19:43:42.071Z,100020.05
2019-01-30T19:46:14.243Z,100033.60
2019-01-30T19:48:46.707Z,100033.08
2019-01-30T19:51:18.786Z,100034.63
2019-01-30T19:53:51.141Z,100034.77
2019-01-30T19:56:23.849Z,100023.55
2019-01-30T19:58:56.242Z,100006.01
2019-01-30T20:01:35.948Z,99996.70
2019-01-30T20:04:02.461Z,100006.76
2019-01-30T20:06:35.581Z,100012.22
2019-01-30T20:09:10.708Z,100008.75
2019-01-30T20:11:42.903Z,99992.56
2019-01-30T20:14:15.208Z,99983.99
2019-01-30T20:16:47.446Z,99985.20
2019-01-30T20:19:19.892Z,99977.63
2019-01-30T20:21:52.287Z,99984.94
2019-01-30T20:24:24.487Z,99994.07
2019-01-30T20:26:57.258Z,99992.39
2019-01-30T20:29:29.619Z,99987.66
2019-01-30T20:32:01.750Z,99989.52
2019-01-30T20:34:33.944Z,99981.09
2019-01-30T20:37:06.204Z,99991.08
2019-01-30T20:39:38.547Z,99981.94
2019-01-30T20:42:10.772Z,99988.39
2019-01-30T20:44:43.069Z,99981.13
2019-01-30T20:47:15.337Z,99992.30
2019-01-30T20:49:50.535Z,99988.77
2019-01-30T20:52:21.602Z,100006.34
2019-01-30T20:54:59.823Z,100008.70
2019-01-30T20:57:28.346Z,100010.41
2019-01-30T21:00:00.729Z,100007.02
2019-01-30T21:02:33.999Z,99998.25
2019-01-30T21:05:06.470Z,100004.16
2019-01-30T21:07:38.636Z,100010.42
2019-01-30T21:10:13.292Z,100016.14
2019-01-30T21:12:45.506Z,100001.45
2019-01-30T21:15:17.991Z,99993.86
2019-01-30T21:17:50.371Z,99975.11
2019-01-30T21:20:22.850Z,99970.36
2019-01-30T21:22:55.124Z,99972.23
2019-01-30T21:25:27.472Z,99975.95
2019-01-30T21:27:59.766Z,99981.53
2019-01-30T21:30:33.195Z,99984.58
2019-01-30T21:33:05.519Z,99981.71
2019-01-30T21:35:37.887Z,99984.11
2019-01-30T21:38:10.139Z,99967.36
2019-01-30T21:40:42.417Z,99964.49
2019-01-30T21:43:14.768Z,99948.80
2019-01-30T21:45:47.153Z,99936.94
2019-01-30T21:48:19.606Z,99927.16
2019-01-30T21:50:52.544Z,99921.08
2019-01-30T21:53:24.840Z,99921.25
2019-01-30T21:55:57.426Z,99916.19
2019-01-30T21:58:29.600Z,99914.16
2019-01-30T22:01:01.922Z,99915.19
2019-01-30T22:03:34.063Z,99904.69
2019-01-30T22:06:06.607Z,99892.39
2019-01-30T22:08:38.824Z,99895.92
2019-01-30T22:11:11.229Z,99894.23
2019-01-30T22:13:43.296Z,99888.52
2019-01-30T22:16:15.655Z,99882.93
2019-01-30T22:18:47.861Z,99872.97
2019-01-30T22:21:20.094Z,99869.43
2019-01-30T22:23:52.286Z,99880.42
2019-01-30T22:26:24.582Z,99883.44
2019-01-30T22:28:56.785Z,99888.02
2019-01-30T22:31:28.873Z,99901.70
2019-01-30T22:34:01.133Z,99903.40
2019-01-30T22:36:33.219Z,99908.80
2019-01-30T22:39:05.613Z,99902.05
2019-01-30T22:41:37.773Z,99907.27
2019-01-30T22:44:10.072Z,99896.82
2019-01-30T22:46:43.268Z,99886.50
2019-01-30T22:49:15.552Z,99892.91
2019-01-30T22:51:47.589Z,99878.05
2019-01-30T22:54:20.092Z,99868.95
2019-01-30T22:56:52.300Z,99890.39
2019-01-30T22:59:24.636Z,99897.48
2019-01-30T23:02:01.453Z,99908.48
2019-01-30T23:04:37.852Z,99907.95
2019-01-30T23:07:21.432Z,99911.18
2019-01-30T23:10:12.382Z,99888.39
2019-01-30T23:13:02.991Z,99876.23
2019-01-30T23:15:44.948Z,99880.45
2019-01-30T23:18:38.493Z,99882.99
2019-01-30T23:21:16.364Z,99892.80
2019-01-30T23:24:25.410Z,99875.59
2019-01-30T23:27:29.270Z,99873.55
2019-01-30T23:30:22.706Z,99860.20
2019-01-30T23:33:16.266Z,99862.56
2019-01-30T23:36:16.012Z,99865.63
2019-01-30T23:39:09.613Z,99869.84
2019-01-30T23:41:47.770Z,99879.78
2019-01-30T23:44:34.276Z,99870.50
2019-01-30T23:47:30.809Z,99862.58
2019-01-30T23:50:21.563Z,99857.69
2019-01-30T23:53:04.270Z,99857.04
2019-01-30T23:55:51.378Z,99862.93
2019-01-30T23:58:29.251Z,99880.32
